Time;durP1;ratioP1;P1;durP2;ratioP2;P2;SDS_P1;SDS_P2;PMS_P1;PMS_P2;Temp;Humidity;BMP_temperature;BMP_pressure;BME280_temperature;BME280_humidity;BME280_pressure;Samples;Min_cycle;Max_cycle;Signal;HPM_P1;HPM_P2
2022/01/22 00:01:47;;;;;;;2.05;1.40;;;1.70;90.00;;;;;;1902033;75;21033;-46
2022/01/22 00:04:17;;;;;;;2.75;1.40;;;1.70;90.00;;;;;;1902148;75;21009;-49
2022/01/22 00:06:46;;;;;;;2.10;1.45;;;1.70;90.00;;;;;;1902085;75;21176;-49
2022/01/22 00:09:16;;;;;;;1.70;1.27;;;1.80;90.10;;;;;;1902160;75;21024;-49
2022/01/22 00:11:52;;;;;;;2.55;1.60;;;1.90;90.20;;;;;;1902037;75;21137;-48
2022/01/22 00:14:25;;;;;;;1.92;1.45;;;2.00;90.20;;;;;;1901234;75;21076;-49
2022/01/22 00:16:57;;;;;;;1.20;1.10;;;2.10;90.10;;;;;;1902234;75;21072;-49
2022/01/22 00:19:26;;;;;;;1.47;1.37;;;2.10;89.50;;;;;;1902190;75;21082;-47
2022/01/22 00:21:56;;;;;;;1.92;1.22;;;2.10;89.50;;;;;;1902166;75;21032;-50
2022/01/22 00:24:25;;;;;;;3.20;1.90;;;2.00;88.70;;;;;;1888969;74;21052;-49
2022/01/22 00:26:55;;;;;;;2.45;1.37;;;1.90;88.60;;;;;;1882286;75;21129;-48
2022/01/22 00:29:24;;;;;;;4.05;2.12;;;1.70;88.80;;;;;;1882256;76;21162;-46
2022/01/22 00:31:54;;;;;;;1.85;1.50;;;1.60;89.10;;;;;;1882230;75;21086;-48
2022/01/22 00:34:23;;;;;;;4.30;2.10;;;1.60;89.50;;;;;;1882272;75;20996;-48
2022/01/22 00:36:52;;;;;;;3.05;1.62;;;1.60;89.90;;;;;;1882248;75;21102;-49
2022/01/22 00:39:22;;;;;;;5.20;3.30;;;1.50;89.80;;;;;;1882244;75;21098;-48
2022/01/22 00:41:51;;;;;;;0.85;0.82;;;1.60;89.80;;;;;;1882421;75;21021;-49
2022/01/22 00:44:20;;;;;;;1.67;1.42;;;1.50;90.20;;;;;;1882343;76;21024;-50
2022/01/22 00:46:50;;;;;;;2.17;1.67;;;1.50;89.80;;;;;;1882327;75;21043;-49
2022/01/22 00:49:19;;;;;;;1.55;1.45;;;1.50;89.60;;;;;;1882348;75;21032;-48
2022/01/22 00:51:49;;;;;;;3.52;1.95;;;1.40;89.70;;;;;;1882250;76;21032;-50
2022/01/22 00:54:18;;;;;;;1.75;1.30;;;1.40;89.90;;;;;;1882355;76;21056;-49
2022/01/22 00:56:47;;;;;;;3.58;2.00;;;1.40;89.90;;;;;;1882316;75;21032;-49
2022/01/22 00:59:17;;;;;;;4.72;2.45;;;1.40;89.60;;;;;;1882318;75;21036;-48
2022/01/22 01:01:47;;;;;;;4.92;2.77;;;1.40;89.80;;;;;;1882297;75;21008;-49
2022/01/22 01:04:16;;;;;;;4.92;2.95;;;1.30;90.00;;;;;;1882331;75;21036;-49
2022/01/22 01:06:46;;;;;;;1.92;1.52;;;1.40;89.90;;;;;;1882368;76;21005;-48
2022/01/22 01:09:16;;;;;;;1.47;1.37;;;1.30;89.90;;;;;;1882364;75;21071;-50
2022/01/22 01:11:59;;;;;;;1.80;1.05;;;1.30;89.60;;;;;;1882442;75;21422;-48
2022/01/22 01:14:24;;;;;;;1.40;1.30;;;1.30;89.80;;;;;;1880483;75;21466;-47
2022/01/22 01:17:11;;;;;;;1.67;1.40;;;1.30;89.90;;;;;;1881592;75;21052;-50
2022/01/22 01:36:10;;;;;;;1.65;1.55;;;0.90;90.20;;;;;;1882248;75;21114;-47
2022/01/22 01:38:43;;;;;;;1.32;1.22;;;0.90;90.20;;;;;;1882267;76;21087;-47
2022/01/22 01:41:20;;;;;;;2.08;1.72;;;0.90;90.20;;;;;;1881998;75;21032;-47
2022/01/22 01:43:40;;;;;;;2.65;1.60;;;0.90;90.40;;;;;;1880793;76;21017;-48
2022/01/22 01:46:30;;;;;;;2.45;1.95;;;0.90;90.30;;;;;;1882191;76;21044;-48
2022/01/22 01:48:58;;;;;;;4.72;2.30;;;0.90;90.30;;;;;;1882305;75;21028;-46
2022/01/22 01:51:31;;;;;;;1.45;1.20;;;0.90;90.40;;;;;;1882228;75;21083;-46
2022/01/22 01:59:19;;;;;;;1.42;1.32;;;1.00;90.30;;;;;;1882211;75;21040;-48
2022/01/22 02:01:48;;;;;;;1.82;1.37;;;1.00;90.10;;;;;;1882280;76;21104;-48
2022/01/22 02:04:18;;;;;;;2.55;1.87;;;1.00;90.20;;;;;;1882335;75;21028;-50
2022/01/22 02:06:48;;;;;;;3.83;2.00;;;1.00;90.20;;;;;;1882158;76;21025;-48
2022/01/22 02:09:17;;;;;;;1.87;1.52;;;1.00;90.20;;;;;;1882334;75;21028;-49
2022/01/22 02:11:55;;;;;;;2.10;1.90;;;1.00;90.10;;;;;;1882153;75;21025;-49
2022/01/22 02:25:25;;;;;;;2.05;1.85;;;1.00;90.10;;;;;;1901077;75;21111;-49
2022/01/22 02:27:55;;;;;;;2.00;1.50;;;0.90;90.00;;;;;;1914824;75;21129;-47
2022/01/22 02:30:29;;;;;;;3.02;1.55;;;0.90;90.10;;;;;;1914766;74;21051;-45
2022/01/22 02:35:57;;;;;;;2.55;2.22;;;0.80;90.00;;;;;;1874987;76;21026;-46
2022/01/22 02:38:19;;;;;;;1.87;1.60;;;0.80;90.00;;;;;;1910508;75;21063;-45
2022/01/22 02:40:49;;;;;;;2.52;1.82;;;0.80;90.00;;;;;;1914009;75;21399;-47
2022/01/22 02:43:19;;;;;;;2.20;2.00;;;0.70;90.10;;;;;;1914869;74;21025;-47
2022/01/22 02:45:49;;;;;;;2.27;2.08;;;0.80;90.10;;;;;;1914684;75;21040;-46
2022/01/22 02:48:19;;;;;;;2.42;1.20;;;0.70;90.00;;;;;;1914724;75;21031;-46
2022/01/22 02:50:49;;;;;;;2.83;1.45;;;0.70;90.10;;;;;;1914759;75;21028;-45
2022/01/22 02:53:18;;;;;;;2.92;2.15;;;0.70;90.00;;;;;;1879231;75;21090;-50
2022/01/22 02:55:47;;;;;;;8.10;3.30;;;0.80;90.10;;;;;;1914769;75;21032;-47
2022/01/22 02:58:18;;;;;;;4.10;2.50;;;0.80;90.00;;;;;;1914839;75;21117;-47
2022/01/22 03:00:48;;;;;;;6.03;2.90;;;0.80;89.50;;;;;;1914567;75;21008;-49
2022/01/22 03:03:18;;;;;;;7.72;2.83;;;0.80;89.70;;;;;;1879331;75;21004;-46
2022/01/22 03:05:48;;;;;;;4.97;2.67;;;0.80;89.90;;;;;;1914731;75;21025;-46
2022/01/22 03:08:19;;;;;;;3.85;2.30;;;0.90;89.70;;;;;;1914708;75;21089;-47
2022/01/22 03:10:51;;;;;;;4.42;2.12;;;0.90;89.80;;;;;;1914735;75;21466;-46
2022/01/22 03:18:55;;;;;;;7.58;2.47;;;1.20;90.20;;;;;;1905392;75;21032;-46
2022/01/22 03:29:35;;;;;;;3.62;2.22;;;1.50;89.20;;;;;;1914744;75;21050;-45
2022/01/22 03:32:03;;;;;;;4.80;2.02;;;1.40;89.10;;;;;;1914665;75;21005;-46
2022/01/22 03:34:40;;;;;;;1.85;1.70;;;1.40;88.90;;;;;;1914751;75;21047;-46
2022/01/22 03:37:04;;;;;;;2.95;2.30;;;1.20;89.20;;;;;;1913511;75;21533;-46
2022/01/22 03:39:34;;;;;;;2.95;2.10;;;1.20;89.50;;;;;;1914844;75;21026;-46
2022/01/22 03:42:04;;;;;;;3.75;2.70;;;1.20;89.50;;;;;;1914787;75;21028;-46
2022/01/22 03:44:33;;;;;;;7.90;3.60;;;1.20;89.50;;;;;;1914777;75;21024;-46
2022/01/22 03:47:04;;;;;;;2.85;2.52;;;1.10;89.60;;;;;;1914808;75;21111;-46
2022/01/22 03:49:34;;;;;;;4.03;2.50;;;1.20;89.90;;;;;;1914977;74;21564;-47
2022/01/22 03:52:05;;;;;;;3.40;2.27;;;1.20;90.00;;;;;;1914876;75;21611;-46
2022/01/22 03:54:36;;;;;;;3.92;3.00;;;1.20;89.90;;;;;;1914852;75;21143;-46
2022/01/22 03:57:06;;;;;;;4.12;3.08;;;1.20;89.50;;;;;;1914804;75;21075;-45
2022/01/22 03:59:37;;;;;;;4.67;3.52;;;1.20;89.50;;;;;;1913122;75;21055;-45
2022/01/22 04:05:02;;;;;;;3.60;3.02;;;1.10;89.60;;;;;;1914708;75;21060;-46
2022/01/22 04:10:20;;;;;;;5.37;2.37;;;1.10;89.40;;;;;;1914908;75;21100;-46
2022/01/22 04:12:58;;;;;;;3.02;2.45;;;1.10;89.60;;;;;;1915144;74;21036;-45
2022/01/22 04:15:25;;;;;;;5.67;3.05;;;1.10;89.90;;;;;;1913733;74;21032;-45
2022/01/22 04:26:32;;;;;;;3.33;2.42;;;1.30;89.50;;;;;;1909032;74;21068;-45
2022/01/22 04:28:51;;;;;;;2.87;2.20;;;1.40;89.90;;;;;;1900213;75;21134;-46
2022/01/22 04:31:20;;;;;;;2.67;2.27;;;1.50;90.00;;;;;;1902078;75;21028;-46
2022/01/22 04:33:51;;;;;;;3.15;2.37;;;1.60;89.90;;;;;;1902135;75;21119;-45
2022/01/22 04:36:21;;;;;;;6.17;2.77;;;1.60;89.80;;;;;;1902128;75;21090;-48
2022/01/22 04:38:51;;;;;;;5.10;2.85;;;1.70;89.90;;;;;;1902200;75;21094;-45
2022/01/22 04:41:21;;;;;;;3.00;2.52;;;1.70;89.50;;;;;;1902061;75;21008;-46
2022/01/22 04:43:57;;;;;;;6.22;2.72;;;1.80;89.40;;;;;;1902222;75;21170;-46
2022/01/22 04:46:34;;;;;;;6.25;4.50;;;1.80;89.30;;;;;;1901150;75;21486;-46
2022/01/22 04:49:11;;;;;;;11.08;8.30;;;1.70;89.10;;;;;;1900125;75;21185;-46
2022/01/22 04:57:13;;;;;;;6.80;4.28;;;1.90;89.80;;;;;;1902302;75;21107;-45
2022/01/22 04:59:42;;;;;;;11.00;5.08;;;1.90;89.80;;;;;;1902037;75;21037;-45
2022/01/22 05:02:12;;;;;;;10.00;4.83;;;2.00;89.90;;;;;;1902133;75;21052;-45
2022/01/22 05:04:49;;;;;;;9.45;4.50;;;2.10;89.60;;;;;;1899189;75;21056;-46
2022/01/22 05:07:20;;;;;;;17.90;5.42;;;2.10;89.60;;;;;;1897213;75;21035;-46
2022/01/22 05:09:57;;;;;;;11.03;5.15;;;2.20;89.70;;;;;;1869926;75;21048;-46
2022/01/22 05:12:26;;;;;;;7.72;4.03;;;2.20;89.60;;;;;;1902114;75;21049;-44
2022/01/22 05:14:56;;;;;;;5.92;4.47;;;2.30;89.80;;;;;;1902156;75;21083;-45
2022/01/22 05:17:25;;;;;;;6.60;3.50;;;2.40;89.70;;;;;;1902264;75;21424;-45
2022/01/22 05:20:06;;;;;;;3.80;3.37;;;2.40;89.50;;;;;;1901777;75;21157;-45
2022/01/22 05:22:46;;;;;;;5.60;3.45;;;2.40;89.40;;;;;;1901349;75;21052;-46
2022/01/22 05:25:07;;;;;;;7.00;4.08;;;2.40;89.40;;;;;;1899313;75;21087;-46
2022/01/22 05:27:53;;;;;;;4.85;3.47;;;2.50;89.40;;;;;;1886955;75;21092;-45
2022/01/22 05:38:36;;;;;;;6.75;3.70;;;2.60;89.40;;;;;;1882249;75;21099;-46
2022/01/22 05:41:05;;;;;;;3.62;3.05;;;2.60;89.30;;;;;;1882192;75;21071;-44
2022/01/22 05:43:35;;;;;;;5.58;3.87;;;2.60;89.30;;;;;;1882134;75;21094;-45
2022/01/22 05:46:04;;;;;;;6.33;3.83;;;2.70;89.30;;;;;;1882267;75;21057;-45
2022/01/22 05:48:34;;;;;;;6.33;3.92;;;2.70;89.30;;;;;;1882194;75;21028;-45
2022/01/22 05:51:05;;;;;;;7.55;4.20;;;2.70;89.20;;;;;;1882274;76;21033;-45
2022/01/22 05:53:46;;;;;;;6.25;4.67;;;2.70;88.90;;;;;;1882249;76;21052;-45
2022/01/22 06:01:35;;;;;;;5.50;4.00;;;2.70;88.80;;;;;;1882003;75;21120;-45
2022/01/22 06:04:06;;;;;;;6.75;4.08;;;2.60;88.20;;;;;;1881053;75;21090;-46
2022/01/22 06:06:36;;;;;;;6.47;4.15;;;2.60;88.90;;;;;;1882195;75;21154;-46
2022/01/22 06:09:09;;;;;;;4.78;3.58;;;2.70;89.40;;;;;;1882154;76;21113;-46
2022/01/22 06:14:27;;;;;;;4.75;3.22;;;2.80;89.10;;;;;;1880568;76;21157;-47
2022/01/22 06:16:56;;;;;;;6.97;5.05;;;2.90;88.10;;;;;;1882147;75;21137;-46
2022/01/22 06:19:30;;;;;;;8.38;4.22;;;2.80;86.80;;;;;;1881621;75;21117;-47
2022/01/22 06:22:00;;;;;;;5.65;4.17;;;2.70;87.60;;;;;;1882230;76;21094;-46
2022/01/22 06:24:30;;;;;;;6.85;4.08;;;2.70;88.50;;;;;;1860160;76;21025;-47
2022/01/22 06:27:00;;;;;;;4.55;4.12;;;2.70;88.90;;;;;;1882170;75;21126;-47
2022/01/22 06:29:29;;;;;;;5.20;4.15;;;2.80;88.90;;;;;;1882311;75;21091;-48
2022/01/22 06:31:59;;;;;;;5.15;3.95;;;2.90;88.80;;;;;;1882285;76;21034;-46
2022/01/22 06:34:29;;;;;;;4.70;3.80;;;2.90;88.40;;;;;;1882122;76;21090;-45
2022/01/22 06:37:00;;;;;;;4.08;3.25;;;2.90;88.60;;;;;;1882536;75;21114;-45
2022/01/22 06:39:30;;;;;;;7.25;3.77;;;3.00;88.90;;;;;;1882126;75;21157;-45
2022/01/22 06:42:04;;;;;;;4.58;3.17;;;3.10;88.90;;;;;;1882577;75;21168;-48
2022/01/22 06:44:47;;;;;;;6.35;3.52;;;3.20;88.60;;;;;;1881129;76;21142;-46
2022/01/22 06:47:35;;;;;;;5.40;3.70;;;3.30;88.40;;;;;;1882267;76;21131;-45
2022/01/22 06:50:15;;;;;;;6.95;3.55;;;3.30;87.80;;;;;;1881887;75;21074;-48
2022/01/22 06:53:07;;;;;;;5.10;3.83;;;3.30;87.90;;;;;;1882232;75;21691;-46
2022/01/22 06:55:41;;;;;;;7.22;4.50;;;3.30;86.90;;;;;;1880479;75;21072;-45
2022/01/22 06:58:05;;;;;;;5.58;3.62;;;3.30;86.60;;;;;;1881642;75;21055;-47
2022/01/22 07:00:35;;;;;;;5.08;3.92;;;3.20;86.70;;;;;;1882095;76;21094;-47
2022/01/22 07:03:06;;;;;;;4.85;3.95;;;3.10;86.20;;;;;;1879538;76;21123;-45
2022/01/22 07:05:36;;;;;;;5.60;4.78;;;3.10;87.20;;;;;;1882301;75;21082;-45
2022/01/22 07:08:07;;;;;;;6.70;4.47;;;3.10;87.90;;;;;;1881177;76;21510;-46
2022/01/22 07:10:38;;;;;;;6.10;3.67;;;3.20;87.90;;;;;;1882033;75;21055;-47
2022/01/22 07:13:07;;;;;;;8.13;4.83;;;3.30;87.90;;;;;;1882350;75;21036;-45
2022/01/22 07:15:36;;;;;;;8.80;5.22;;;3.50;88.10;;;;;;1882390;75;21084;-45
2022/01/22 07:18:07;;;;;;;5.78;4.33;;;3.60;87.90;;;;;;1881507;75;21084;-45
2022/01/22 07:20:39;;;;;;;6.37;4.87;;;3.70;87.90;;;;;;1882219;75;21071;-45
2022/01/22 07:25:58;;;;;;;6.17;4.08;;;4.10;87.60;;;;;;1881446;75;21138;-45
2022/01/22 07:28:29;;;;;;;5.50;4.33;;;4.20;87.40;;;;;;1882774;75;21079;-44
2022/01/22 07:31:04;;;;;;;4.83;4.15;;;4.40;86.90;;;;;;1909328;74;21094;-45
2022/01/22 07:33:30;;;;;;;5.92;4.35;;;4.50;86.60;;;;;;1876099;75;21052;-45
2022/01/22 07:36:01;;;;;;;6.33;3.33;;;4.60;86.50;;;;;;1909262;74;21486;-45
2022/01/22 07:38:30;;;;;;;4.08;3.10;;;4.70;86.30;;;;;;1909320;74;21048;-47
2022/01/22 07:41:00;;;;;;;8.53;4.78;;;4.80;86.20;;;;;;1909263;74;21100;-45
2022/01/22 07:43:35;;;;;;;4.53;3.67;;;4.90;85.70;;;;;;1909021;75;21024;-45
2022/01/22 07:46:21;;;;;;;5.70;3.33;;;5.00;85.90;;;;;;1872482;75;21052;-45
2022/01/22 07:48:53;;;;;;;3.40;2.85;;;5.00;85.60;;;;;;1909249;75;21101;-46
2022/01/22 07:51:26;;;;;;;5.25;3.75;;;5.10;85.40;;;;;;1907273;75;21149;-45
2022/01/22 07:53:55;;;;;;;4.53;3.87;;;5.10;85.40;;;;;;1909369;74;21137;-44
2022/01/22 07:56:26;;;;;;;6.87;4.40;;;5.20;84.90;;;;;;1909094;74;21156;-46
2022/01/22 07:58:57;;;;;;;12.73;6.37;;;5.20;85.00;;;;;;1909338;74;21173;-45
2022/01/22 08:01:28;;;;;;;23.65;12.07;;;5.20;84.70;;;;;;1909253;75;21506;-46
2022/01/22 08:04:18;;;;;;;17.10;9.55;;;5.20;84.70;;;;;;1909312;74;21036;-47
2022/01/22 08:07:01;;;;;;;12.63;7.47;;;5.30;85.10;;;;;;1909497;74;21101;-45
2022/01/22 08:09:33;;;;;;;13.28;5.58;;;5.30;84.90;;;;;;1909296;74;21056;-46
2022/01/22 08:12:07;;;;;;;9.55;5.60;;;5.40;84.90;;;;;;1900559;74;21090;-48
2022/01/22 08:14:36;;;;;;;9.83;6.67;;;5.50;84.50;;;;;;1909332;75;21172;-47
2022/01/22 08:17:07;;;;;;;10.65;7.15;;;5.50;84.10;;;;;;1909305;74;21048;-49
2022/01/22 08:19:38;;;;;;;10.85;7.75;;;5.40;83.40;;;;;;1909180;74;21036;-47
2022/01/22 08:22:09;;;;;;;11.88;8.45;;;5.30;83.70;;;;;;1904385;75;21024;-48
2022/01/22 08:24:53;;;;;;;9.18;7.80;;;5.30;83.50;;;;;;1875821;76;21037;-49
2022/01/22 08:30:01;;;;;;;13.13;9.43;;;5.40;84.40;;;;;;1912104;75;21108;-46
2022/01/22 08:37:58;;;;;;;19.57;11.35;;;5.60;83.20;;;;;;1921553;75;21042;-45
2022/01/22 08:40:28;;;;;;;11.70;10.05;;;5.60;83.70;;;;;;1875134;76;21074;-45
2022/01/22 08:42:57;;;;;;;18.00;10.75;;;5.70;83.40;;;;;;1921511;74;21245;-46
2022/01/22 08:45:26;;;;;;;12.55;9.13;;;5.70;82.20;;;;;;1875174;76;21034;-47
2022/01/22 08:47:57;;;;;;;11.88;8.00;;;5.60;83.10;;;;;;1920753;75;21080;-46
2022/01/22 08:50:27;;;;;;;14.00;8.80;;;5.70;83.00;;;;;;1921496;75;21030;-48
2022/01/22 08:52:57;;;;;;;10.28;7.53;;;5.70;82.90;;;;;;1842295;77;21051;-46
2022/01/22 08:55:26;;;;;;;17.67;10.10;;;5.70;82.00;;;;;;1921516;75;21030;-46
2022/01/22 08:57:56;;;;;;;13.68;8.55;;;5.60;82.60;;;;;;1921447;75;21143;-48
2022/01/22 09:00:39;;;;;;;11.28;7.70;;;5.60;83.10;;;;;;1843133;77;21091;-47
2022/01/22 09:03:10;;;;;;;13.95;9.33;;;5.70;82.70;;;;;;1920718;75;21144;-50
2022/01/22 09:05:46;;;;;;;7.05;5.15;;;5.80;82.80;;;;;;1923830;74;21059;-46
2022/01/22 09:08:32;;;;;;;5.42;4.92;;;5.80;82.30;;;;;;1842350;77;21071;-46
2022/01/22 09:11:04;;;;;;;7.80;4.90;;;5.80;81.50;;;;;;1911681;74;21076;-50
2022/01/22 09:13:47;;;;;;;5.28;4.42;;;5.70;81.20;;;;;;1843589;77;21079;-50
2022/01/22 09:16:16;;;;;;;7.37;4.00;;;5.70;81.60;;;;;;1921352;74;21103;-47
2022/01/22 09:18:45;;;;;;;5.22;3.80;;;5.70;81.50;;;;;;1842465;77;21039;-49
2022/01/22 09:21:15;;;;;;;4.22;3.37;;;5.70;82.10;;;;;;1921351;75;21030;-47
2022/01/22 09:23:45;;;;;;;5.85;3.58;;;5.70;82.00;;;;;;1842374;78;21062;-50
2022/01/22 09:26:15;;;;;;;6.40;4.10;;;5.70;81.90;;;;;;1920824;75;21062;-49
2022/01/22 09:28:46;;;;;;;4.25;3.40;;;5.80;82.10;;;;;;1913753;75;21142;-50
2022/01/22 09:31:16;;;;;;;3.77;3.25;;;5.80;80.80;;;;;;1891499;75;21545;-49
2022/01/22 09:33:46;;;;;;;5.58;3.70;;;5.70;80.30;;;;;;1891423;74;21043;-50
2022/01/22 09:36:20;;;;;;;5.80;5.30;;;5.60;81.30;;;;;;1888702;74;21043;-49
2022/01/22 09:39:04;;;;;;;10.55;5.67;;;5.60;81.50;;;;;;1875144;75;21039;-48
2022/01/22 09:41:54;;;;;;;6.92;4.95;;;5.60;81.30;;;;;;1889664;74;21100;-50
2022/01/22 09:44:41;;;;;;;9.63;5.55;;;5.70;81.10;;;;;;1889602;75;21099;-49
2022/01/22 09:47:11;;;;;;;7.25;4.75;;;5.80;81.60;;;;;;1887103;75;21080;-47
2022/01/22 09:49:45;;;;;;;6.92;4.92;;;5.80;80.70;;;;;;1890690;74;21109;-48
2022/01/22 09:52:32;;;;;;;7.33;5.35;;;5.80;80.80;;;;;;1891684;76;21102;-49
2022/01/22 09:55:03;;;;;;;6.37;5.25;;;5.80;80.90;;;;;;1888291;76;21098;-49
2022/01/22 09:57:38;;;;;;;9.15;7.30;;;5.80;81.30;;;;;;1888852;74;21454;-46
2022/01/22 10:00:25;;;;;;;8.15;5.50;;;5.90;81.30;;;;;;1891541;74;21101;-47
2022/01/22 10:02:56;;;;;;;9.40;5.42;;;5.90;80.50;;;;;;1891644;75;21012;-46
2022/01/22 10:05:40;;;;;;;7.30;5.22;;;5.80;80.40;;;;;;1890429;75;21079;-48
2022/01/22 10:08:32;;;;;;;11.30;6.70;;;5.80;81.10;;;;;;1891498;74;21117;-50
2022/01/22 10:11:23;;;;;;;9.93;7.67;;;5.90;80.70;;;;;;1890988;74;21157;-52
2022/01/22 10:14:00;;;;;;;11.53;6.95;;;6.00;80.40;;;;;;1811456;78;21271;-50
2022/01/22 10:16:34;;;;;;;7.67;5.87;;;6.00;80.50;;;;;;1891569;75;21020;-49
2022/01/22 10:19:15;;;;;;;8.53;4.65;;;6.10;80.60;;;;;;1891672;75;21474;-48
2022/01/22 10:21:50;;;;;;;9.70;5.35;;;6.10;80.30;;;;;;1891627;75;20992;-48
2022/01/22 10:24:39;;;;;;;8.50;6.25;;;6.10;80.60;;;;;;1891629;76;21016;-47
2022/01/22 10:27:34;;;;;;;6.95;5.20;;;6.20;80.30;;;;;;1891572;76;21024;-48
2022/01/22 10:30:12;;;;;;;10.85;6.42;;;6.20;80.20;;;;;;1891615;74;21056;-49
2022/01/22 10:35:20;;;;;;;9.35;6.00;;;6.20;79.80;;;;;;1885851;74;21020;-47
2022/01/22 10:38:08;;;;;;;8.35;5.97;;;6.20;79.50;;;;;;1891534;76;21044;-49
2022/01/22 10:40:39;;;;;;;7.25;5.05;;;6.20;79.50;;;;;;1891458;76;21083;-47
2022/01/22 10:43:33;;;;;;;8.88;5.87;;;6.20;78.80;;;;;;1891851;75;21129;-49
2022/01/22 10:46:33;;;;;;;9.43;5.92;;;6.10;78.80;;;;;;1891429;76;21056;-48
2022/01/22 10:48:58;;;;;;;9.58;5.85;;;6.00;79.30;;;;;;1890100;75;21129;-47
2022/01/22 10:51:29;;;;;;;10.32;6.12;;;6.00;78.40;;;;;;1891721;74;21075;-47
2022/01/22 10:54:01;;;;;;;23.00;20.05;;;5.90;79.40;;;;;;1891428;74;21209;-49
2022/01/22 10:56:31;;;;;;;12.20;7.20;;;5.90;79.90;;;;;;1891505;74;21102;-48
2022/01/22 10:59:06;;;;;;;8.78;6.45;;;5.90;79.50;;;;;;1891613;75;21032;-49
2022/01/22 11:01:55;;;;;;;10.45;6.42;;;5.90;79.10;;;;;;1891628;75;21419;-47
2022/01/22 11:04:30;;;;;;;10.40;6.00;;;5.90;79.60;;;;;;1891430;74;21170;-48
2022/01/22 11:07:01;;;;;;;8.90;5.95;;;5.90;77.90;;;;;;1891677;76;21071;-49
2022/01/22 11:09:30;;;;;;;8.70;5.70;;;5.80;78.70;;;;;;1891677;74;21036;-48
2022/01/22 11:12:01;;;;;;;5.75;4.75;;;5.70;78.60;;;;;;1891602;75;21023;-47
2022/01/22 11:14:33;;;;;;;7.53;5.08;;;5.70;78.80;;;;;;1891622;76;21032;-48
2022/01/22 11:17:03;;;;;;;5.85;4.83;;;5.60;78.90;;;;;;1891694;75;21064;-49
2022/01/22 11:19:33;;;;;;;9.30;6.10;;;5.60;78.40;;;;;;1891608;75;21048;-47
2022/01/22 11:22:10;;;;;;;13.70;7.90;;;5.40;77.70;;;;;;1891532;74;21032;-49
2022/01/22 11:24:42;;;;;;;9.43;7.35;;;5.30;77.90;;;;;;1891481;76;21019;-47
2022/01/22 11:27:15;;;;;;;11.90;7.12;;;5.30;78.50;;;;;;1891585;75;21111;-47
2022/01/22 11:29:56;;;;;;;10.05;7.50;;;5.20;78.60;;;;;;1898190;74;21087;-46
2022/01/22 11:32:36;;;;;;;10.03;7.83;;;5.10;78.70;;;;;;1924427;74;21047;-46
2022/01/22 11:35:08;;;;;;;7.92;5.33;;;5.10;79.00;;;;;;1924034;74;21024;-49
2022/01/22 11:38:00;;;;;;;7.78;4.45;;;5.00;79.00;;;;;;1924296;74;21059;-46
2022/01/22 11:40:32;;;;;;;8.95;5.83;;;5.00;79.10;;;;;;1842029;77;21038;-48
2022/01/22 11:43:12;;;;;;;7.62;5.85;;;5.00;79.00;;;;;;1884837;76;21048;-47
2022/01/22 11:45:44;;;;;;;8.40;5.92;;;4.90;79.60;;;;;;1883390;76;21075;-50
2022/01/22 11:48:15;;;;;;;7.95;6.20;;;4.90;80.20;;;;;;1884534;76;21083;-47
2022/01/22 11:50:47;;;;;;;6.33;4.17;;;5.10;79.60;;;;;;1884751;76;21028;-49
2022/01/22 11:53:33;;;;;;;7.55;4.92;;;5.00;78.70;;;;;;1884698;76;21391;-50
2022/01/22 11:56:14;;;;;;;11.15;6.35;;;5.00;78.40;;;;;;1884511;76;21111;-50
2022/01/22 11:59:03;;;;;;;7.28;3.92;;;4.90;78.60;;;;;;1881488;76;21032;-50
2022/01/22 12:01:56;;;;;;;6.78;4.50;;;4.70;78.80;;;;;;1884883;76;21008;-50
2022/01/22 12:04:30;;;;;;;5.95;3.12;;;4.60;79.50;;;;;;1884884;76;21099;-49
2022/01/22 12:07:06;;;;;;;7.28;4.15;;;4.60;79.20;;;;;;1881815;76;21494;-50
2022/01/22 12:09:54;;;;;;;4.62;3.47;;;4.50;79.50;;;;;;1885031;76;21035;-49
2022/01/22 12:15:28;;;;;;;6.25;3.20;;;4.40;78.40;;;;;;1884843;76;21051;-48
2022/01/22 12:18:01;;;;;;;6.05;3.58;;;4.30;79.40;;;;;;1884923;76;21165;-49
2022/01/22 12:23:17;;;;;;;5.78;3.30;;;4.30;79.80;;;;;;1884800;76;21064;-48
2022/01/22 12:25:49;;;;;;;4.97;2.95;;;4.20;79.00;;;;;;1878342;76;21071;-50
2022/01/22 12:28:36;;;;;;;3.62;2.77;;;4.10;80.00;;;;;;1878403;76;21020;-51
2022/01/22 12:31:20;;;;;;;4.70;2.90;;;4.00;79.90;;;;;;1871754;76;21073;-47
2022/01/22 12:33:52;;;;;;;4.25;3.30;;;4.10;80.80;;;;;;1864526;77;21053;-49
2022/01/22 12:36:27;;;;;;;2.77;2.52;;;4.10;80.30;;;;;;1866015;77;21025;-47
2022/01/22 12:39:07;;;;;;;4.70;3.37;;;4.10;80.10;;;;;;1865717;77;21131;-50
2022/01/22 12:41:48;;;;;;;4.20;2.80;;;3.90;80.10;;;;;;1866040;77;21033;-48
2022/01/22 12:44:36;;;;;;;40.65;23.15;;;3.80;80.00;;;;;;1865052;77;21056;-49
2022/01/22 12:47:09;;;;;;;5.50;4.05;;;3.80;80.90;;;;;;1865992;77;21025;-47
2022/01/22 12:49:38;;;;;;;6.58;3.77;;;3.80;81.10;;;;;;1865744;77;21130;-47
2022/01/22 12:52:11;;;;;;;4.85;4.03;;;3.80;80.30;;;;;;1865828;76;21057;-49
2022/01/22 12:54:45;;;;;;;4.45;3.33;;;3.70;80.70;;;;;;1865909;77;21127;-49
2022/01/22 12:57:17;;;;;;;6.92;3.83;;;3.70;80.80;;;;;;1865859;77;21040;-51
2022/01/22 13:00:00;;;;;;;3.95;3.37;;;3.60;80.50;;;;;;1865836;77;21039;-51
2022/01/22 13:02:37;;;;;;;5.42;4.03;;;3.60;80.90;;;;;;1865287;77;21181;-49
2022/01/22 13:05:08;;;;;;;4.12;3.25;;;3.50;81.20;;;;;;1865211;77;21029;-50
2022/01/22 13:07:57;;;;;;;6.10;4.28;;;3.50;81.20;;;;;;1836529;78;21070;-49
2022/01/22 13:10:33;;;;;;;9.43;5.12;;;3.40;81.40;;;;;;1837499;77;21114;-49
2022/01/22 13:13:04;;;;;;;3.83;3.20;;;3.30;81.90;;;;;;1866058;77;21048;-50
2022/01/22 13:15:35;;;;;;;7.30;4.62;;;3.30;81.80;;;;;;1865962;77;21041;-47
2022/01/22 13:18:04;;;;;;;5.65;3.80;;;3.20;82.00;;;;;;1865961;77;21102;-49
2022/01/22 13:20:37;;;;;;;5.20;4.10;;;3.10;82.20;;;;;;1865852;77;21052;-49
2022/01/22 13:23:25;;;;;;;7.17;4.70;;;3.10;82.60;;;;;;1865929;76;21126;-50
2022/01/22 13:25:53;;;;;;;7.70;4.43;;;3.10;82.50;;;;;;1865742;77;21489;-47
2022/01/22 13:28:24;;;;;;;6.87;5.00;;;3.10;82.90;;;;;;1866024;77;21096;-49
2022/01/22 13:31:00;;;;;;;6.83;4.22;;;3.10;82.60;;;;;;1870642;76;21600;-50
2022/01/22 13:36:12;;;;;;;6.10;4.35;;;2.90;82.70;;;;;;1887918;76;21036;-48
2022/01/22 13:49:42;;;;;;;6.20;4.15;;;2.70;83.50;;;;;;1887848;76;21060;-51
2022/01/22 13:52:16;;;;;;;5.97;4.30;;;2.70;83.70;;;;;;1887854;76;21028;-50
2022/01/22 13:54:47;;;;;;;8.63;5.12;;;2.60;83.70;;;;;;1887841;76;21106;-51
2022/01/22 13:57:19;;;;;;;8.38;5.17;;;2.60;83.80;;;;;;1887753;76;21052;-50
2022/01/22 13:59:52;;;;;;;7.45;5.92;;;2.50;83.80;;;;;;1887797;76;21098;-50
2022/01/22 14:05:02;;;;;;;10.28;6.08;;;2.50;84.20;;;;;;1887647;76;21490;-50
2022/01/22 14:07:35;;;;;;;7.35;5.50;;;2.40;84.30;;;;;;1888006;76;21012;-50
2022/01/22 14:10:15;;;;;;;6.62;5.28;;;2.50;84.60;;;;;;1887717;76;21052;-50
2022/01/22 14:12:55;;;;;;;8.95;6.05;;;2.50;84.50;;;;;;1887895;76;21536;-50
2022/01/22 14:15:41;;;;;;;6.75;5.15;;;2.50;84.20;;;;;;1887862;76;21051;-49
2022/01/22 14:18:19;;;;;;;6.85;4.92;;;2.50;84.20;;;;;;1887827;76;21032;-49
2022/01/22 14:20:55;;;;;;;9.05;6.47;;;2.40;84.50;;;;;;1887707;76;21171;-50
2022/01/22 14:23:31;;;;;;;7.47;5.50;;;2.30;84.40;;;;;;1884685;76;21552;-51
2022/01/22 14:26:08;;;;;;;7.22;5.30;;;2.30;84.50;;;;;;1887892;76;21126;-50
2022/01/22 14:28:51;;;;;;;7.85;5.17;;;2.20;84.50;;;;;;1887885;76;21024;-50
2022/01/22 14:31:29;;;;;;;7.75;4.95;;;2.20;84.80;;;;;;1883102;76;21068;-51
2022/01/22 14:34:01;;;;;;;8.25;4.97;;;2.20;84.90;;;;;;1865847;77;21118;-48
2022/01/22 14:36:33;;;;;;;6.70;4.53;;;2.20;85.00;;;;;;1864977;77;21060;-50
2022/01/22 14:44:59;;;;;;;5.78;4.05;;;2.00;85.40;;;;;;1865889;77;21115;-48
2022/01/22 14:47:28;;;;;;;3.65;2.90;;;2.00;85.40;;;;;;1865554;77;21040;-50
2022/01/22 14:50:07;;;;;;;5.95;4.17;;;2.00;85.60;;;;;;1865883;77;21107;-47
2022/01/22 14:52:36;;;;;;;8.63;5.37;;;2.00;85.90;;;;;;1863066;77;21033;-49
2022/01/22 14:55:08;;;;;;;6.85;4.58;;;2.00;85.60;;;;;;1865779;77;21040;-49
2022/01/22 14:57:39;;;;;;;6.75;3.35;;;2.00;85.40;;;;;;1865788;77;21339;-50
2022/01/22 15:00:11;;;;;;;5.08;3.92;;;2.00;85.50;;;;;;1865704;77;21040;-47
2022/01/22 15:02:41;;;;;;;3.60;1.75;;;1.90;85.40;;;;;;1865551;77;21447;-49
2022/01/22 15:05:13;;;;;;;4.78;3.83;;;1.90;85.90;;;;;;1865870;77;21017;-50
2022/01/22 15:07:44;;;;;;;2.65;1.65;;;1.80;85.80;;;;;;1865775;77;21110;-50
2022/01/22 15:10:16;;;;;;;6.00;3.58;;;1.80;86.30;;;;;;1865777;77;21017;-48
2022/01/22 15:12:45;;;;;;;3.60;2.80;;;1.70;86.10;;;;;;1865957;76;21542;-49
2022/01/22 15:15:18;;;;;;;2.40;2.10;;;1.60;86.70;;;;;;1865794;77;21095;-46
2022/01/22 15:20:21;;;;;;;3.60;2.55;;;1.50;87.00;;;;;;1865983;77;21061;-47
2022/01/22 15:22:50;;;;;;;4.15;3.05;;;1.50;87.10;;;;;;1865847;77;21044;-49
2022/01/22 15:25:19;;;;;;;4.53;3.30;;;1.50;86.90;;;;;;1865959;77;21102;-50
2022/01/22 15:27:49;;;;;;;1.20;1.10;;;1.50;87.00;;;;;;1865870;77;21060;-49
2022/01/22 15:30:21;;;;;;;4.47;3.50;;;1.50;87.00;;;;;;1865872;77;21566;-51
2022/01/22 15:35:22;;;;;;;4.45;2.98;;;1.50;86.80;;;;;;1865888;77;21032;-50
2022/01/22 15:37:59;;;;;;;6.00;3.10;;;1.50;86.80;;;;;;1865862;77;21026;-50
2022/01/22 15:40:32;;;;;;;5.55;3.83;;;1.50;86.80;;;;;;1866024;77;21102;-49